Forside
METAR-TAF:

METAR-TAF

Lufthavne :

Fairfield Municipal Airport

Fairfield, Iowa, USA

Breddekreds: 41-03N, længdekreds: 091-59W, højde: 244 m

Aktuelle vejr

Denne rapport blev lavet for 19 minutter siden, kl. 04:15 UTC
Vind 15 kt fra sydsydøst
Temperatur -1°C
Fugtighed 100%
Tryk 1013 hPa
Sigt: 6.4 km
Overskyet i en højde af 600 ft
dis

METAR: KFFL 180415Z AUTO 15015KT 4SM BR OVC006 M01/M01 A2992 RMK A01

Tid: 22:34 (04:34 UTC)


TAF: fraværende

Vejrobservationer og prognoser fra mere end 4000 lufthavne (METAR og TAF).

De gule og røde prikker repræsenterer de meteorologiske stationer.

Flyt musen over at se navnet på stationen.

Så klik over at se vejr observationer og prognoser.

At skifte det kort: Klik på de grønne knapper med et sort kors for at zoome ind; på den grønne knap med en bindestreg for at zoome ud; eller på de grønne pile for tilstødende kort.


METAR-TAF: